createdAt,value
2022-12-23T00:04:37.878Z,17.23
2022-12-23T00:09:39.342Z,22.15
2022-12-23T00:14:40.865Z,21.05
2022-12-23T00:19:42.894Z,19.30
2022-12-23T00:24:44.321Z,16.83
2022-12-23T00:29:45.833Z,13.07
2022-12-23T00:34:47.207Z,20.25
2022-12-23T00:39:53.647Z,16.92
2022-12-23T00:44:56.481Z,11.90
2022-12-23T00:49:57.976Z,11.85
2022-12-23T00:54:59.495Z,16.15
2022-12-23T01:00:00.905Z,12.55
2022-12-23T01:05:04.562Z,8.60
2022-12-23T01:10:06.158Z,10.55
2022-12-23T01:15:10.423Z,9.30
2022-12-23T01:20:12.644Z,8.70
2022-12-23T01:25:14.103Z,9.10
2022-12-23T01:30:15.656Z,7.75
2022-12-23T01:35:17.660Z,10.10
2022-12-23T01:40:19.207Z,7.00
2022-12-23T01:45:27.053Z,5.10
2022-12-23T01:50:37.074Z,6.28
2022-12-23T01:55:47.799Z,4.65
2022-12-23T02:00:52.054Z,7.78
2022-12-23T02:05:54.161Z,4.60
2022-12-23T02:11:08.849Z,10.43
2022-12-23T02:16:14.010Z,6.55
2022-12-23T02:21:34.050Z,7.68
2022-12-23T02:26:59.944Z,6.20
2022-12-23T02:32:01.355Z,6.38
2022-12-23T02:37:14.384Z,8.02
2022-12-23T02:42:18.165Z,8.45
2022-12-23T02:47:25.216Z,7.85
2022-12-23T02:52:32.638Z,7.05
2022-12-23T02:57:38.837Z,9.02
2022-12-23T03:02:42.843Z,9.05
2022-12-23T03:07:44.503Z,10.48
2022-12-23T03:13:07.486Z,9.88
2022-12-23T03:18:30.584Z,10.02
2022-12-23T03:23:44.530Z,10.57
2022-12-23T03:28:55.827Z,7.95
2022-12-23T03:34:23.627Z,10.07
2022-12-23T03:39:33.002Z,7.60
2022-12-23T03:44:38.475Z,11.17
2022-12-23T03:49:45.465Z,7.82
2022-12-23T03:54:55.179Z,8.82
2022-12-23T03:59:56.980Z,11.52
2022-12-23T04:05:08.852Z,10.15
2022-12-23T04:10:11.228Z,7.93
2022-12-23T04:15:13.580Z,10.73
2022-12-23T04:20:15.740Z,9.18
2022-12-23T04:25:18.367Z,7.40
2022-12-23T04:30:20.010Z,8.70
2022-12-23T04:35:21.524Z,7.22
2022-12-23T04:40:23.290Z,8.15
2022-12-23T04:45:29.449Z,10.43
2022-12-23T04:50:38.439Z,7.63
2022-12-23T04:55:44.023Z,5.82
2022-12-23T05:01:04.011Z,8.10
2022-12-23T05:06:06.220Z,5.32
2022-12-23T05:17:07.780Z,7.15
2022-12-23T05:22:18.380Z,5.63
2022-12-23T05:27:19.965Z,8.73
2022-12-23T05:32:21.478Z,7.47
2022-12-23T05:37:27.903Z,6.60
2022-12-23T05:42:32.565Z,7.57
2022-12-23T05:47:36.483Z,8.23
2022-12-23T05:52:38.532Z,7.40
2022-12-23T05:57:54.006Z,9.45
2022-12-23T06:02:57.680Z,9.52
2022-12-23T06:08:26.779Z,10.02
2022-12-23T06:14:13.912Z,9.52
2022-12-23T06:19:29.920Z,9.82
2022-12-23T06:24:36.842Z,6.05
2022-12-23T06:29:55.901Z,7.88
2022-12-23T06:35:19.997Z,8.82
2022-12-23T06:46:29.655Z,9.90
2022-12-23T06:52:00.163Z,6.43
2022-12-23T07:03:25.893Z,11.75
2022-12-23T07:08:33.679Z,9.98
2022-12-23T07:14:04.117Z,6.45
2022-12-23T07:19:10.265Z,15.48
2022-12-23T07:25:00.271Z,9.68
2022-12-23T07:30:03.752Z,10.43
2022-12-23T07:35:05.778Z,12.27
2022-12-23T07:40:41.002Z,12.23
2022-12-23T07:45:45.004Z,12.25
2022-12-23T07:57:45.486Z,8.30
2022-12-23T08:08:34.537Z,9.40
2022-12-23T08:14:05.088Z,9.60
2022-12-23T08:24:59.198Z,9.88
2022-12-23T08:30:09.496Z,11.32
2022-12-23T08:35:29.786Z,10.70
2022-12-23T08:48:05.470Z,11.82
2022-12-23T08:53:24.952Z,10.68
2022-12-23T08:58:45.502Z,8.68
2022-12-23T09:04:10.094Z,10.10
2022-12-23T09:09:17.293Z,10.40
2022-12-23T09:14:25.299Z,8.88
2022-12-23T09:19:52.674Z,13.95
2022-12-23T09:24:58.586Z,9.73
2022-12-23T09:30:16.470Z,7.65
2022-12-23T09:35:20.627Z,6.43
2022-12-23T09:40:27.148Z,7.78
2022-12-23T09:46:06.746Z,6.75
2022-12-23T09:51:11.188Z,6.05
2022-12-23T09:56:41.946Z,8.95
2022-12-23T10:02:00.987Z,6.72
2022-12-23T10:07:05.496Z,6.43
2022-12-23T10:12:40.127Z,8.75
2022-12-23T10:17:43.354Z,9.93
2022-12-23T10:22:50.762Z,7.72
2022-12-23T10:27:52.201Z,8.25
2022-12-23T10:33:18.078Z,7.10
2022-12-23T10:38:35.629Z,9.25
2022-12-23T10:43:43.807Z,10.77
2022-12-23T10:49:14.282Z,8.15
2022-12-23T10:54:40.001Z,15.20
2022-12-23T10:59:43.918Z,10.70
2022-12-23T11:04:48.419Z,9.98
2022-12-23T11:09:58.900Z,9.05
2022-12-23T11:15:00.751Z,7.28
2022-12-23T11:20:11.214Z,7.32
2022-12-23T11:25:37.387Z,8.38
2022-12-23T11:31:10.131Z,8.05
2022-12-23T11:36:19.758Z,9.85
2022-12-23T11:41:24.029Z,8.10
2022-12-23T11:46:28.908Z,8.23
2022-12-23T11:51:30.457Z,10.38
2022-12-23T11:56:42.829Z,8.98
2022-12-23T12:01:57.951Z,8.10
2022-12-23T12:07:01.055Z,9.68
2022-12-23T12:12:07.371Z,10.80
2022-12-23T12:17:33.355Z,6.35
2022-12-23T12:22:40.504Z,8.60
2022-12-23T12:27:45.943Z,19.58
2022-12-23T12:33:19.400Z,9.25
2022-12-23T12:38:35.392Z,8.75
2022-12-23T12:49:41.825Z,9.55
2022-12-23T13:06:33.016Z,12.07
2022-12-23T13:11:42.076Z,5.68
2022-12-23T13:17:04.361Z,7.00
2022-12-23T13:22:16.107Z,7.22
2022-12-23T13:27:36.678Z,5.78
2022-12-23T13:33:21.997Z,5.65
2022-12-23T13:38:54.571Z,6.40
2022-12-23T13:44:04.588Z,9.82
2022-12-23T13:49:30.601Z,8.50
2022-12-23T13:55:21.895Z,8.35
2022-12-23T14:00:31.231Z,5.85
2022-12-23T14:05:46.098Z,5.10
2022-12-23T14:11:12.405Z,5.70
2022-12-23T14:17:03.436Z,6.65
2022-12-23T14:22:35.659Z,7.43
2022-12-23T14:28:04.154Z,6.70
2022-12-23T14:33:38.483Z,7.32
2022-12-23T14:38:42.324Z,8.30
2022-12-23T14:43:53.228Z,6.43
2022-12-23T14:49:22.473Z,6.32
2022-12-23T14:54:38.844Z,6.45
2022-12-23T15:05:32.525Z,6.53
2022-12-23T15:10:40.547Z,8.45
2022-12-23T15:16:00.977Z,8.77
2022-12-23T15:21:18.266Z,7.05
2022-12-23T15:26:24.050Z,8.90
2022-12-23T15:31:35.003Z,13.43
2022-12-23T15:36:40.065Z,9.23
2022-12-23T15:41:43.453Z,9.82
2022-12-23T15:46:55.601Z,8.15
2022-12-23T15:52:20.451Z,7.55
2022-12-23T15:57:38.948Z,8.48
2022-12-23T16:03:02.915Z,9.70
2022-12-23T16:08:23.070Z,6.93
2022-12-23T16:37:23.353Z,5.43
2022-12-23T16:42:28.201Z,4.88
2022-12-23T16:47:31.007Z,4.47
2022-12-23T16:53:04.677Z,10.75
2022-12-23T17:03:52.758Z,5.82
2022-12-23T17:08:54.911Z,8.90
2022-12-23T17:14:10.396Z,6.68
2022-12-23T17:19:18.153Z,7.55
2022-12-23T17:24:33.180Z,12.15
2022-12-23T17:52:28.960Z,12.55
2022-12-23T18:03:20.472Z,9.63
2022-12-23T18:19:48.644Z,13.52
2022-12-23T18:25:11.568Z,16.85
2022-12-23T18:30:19.980Z,13.95
2022-12-23T18:42:01.015Z,17.98
2022-12-23T18:46:20.882Z,19.17
2022-12-23T18:56:56.939Z,15.80
2022-12-23T19:02:05.650Z,11.18
2022-12-23T19:07:08.858Z,17.73
2022-12-23T19:12:10.656Z,18.80
2022-12-23T19:17:12.416Z,20.60
2022-12-23T19:22:16.040Z,15.38
2022-12-23T19:27:20.670Z,19.92
2022-12-23T19:32:26.731Z,13.63
2022-12-23T19:37:28.441Z,15.00
2022-12-23T19:42:32.957Z,15.98
2022-12-23T19:47:37.099Z,18.65
2022-12-23T19:52:39.074Z,18.77
2022-12-23T19:57:40.800Z,15.95
2022-12-23T20:02:42.580Z,10.68
2022-12-23T20:07:44.123Z,12.80
2022-12-23T20:12:49.069Z,15.98
2022-12-23T20:17:56.083Z,15.40
2022-12-23T20:22:57.701Z,18.27
2022-12-23T20:27:59.075Z,16.35
2022-12-23T20:33:10.602Z,15.02
2022-12-23T20:38:14.460Z,25.20
2022-12-23T20:43:18.492Z,17.60
2022-12-23T20:48:19.966Z,16.75
2022-12-23T20:53:21.643Z,18.17
2022-12-23T20:58:25.654Z,16.20
2022-12-23T21:03:27.464Z,16.92
2022-12-23T21:08:31.182Z,16.05
2022-12-23T21:13:33.086Z,16.35
2022-12-23T21:18:35.641Z,15.45
2022-12-23T21:23:38.738Z,12.10
2022-12-23T21:28:41.667Z,15.82
2022-12-23T21:33:44.398Z,13.82
2022-12-23T21:38:46.519Z,20.55
2022-12-23T21:43:49.666Z,13.88
2022-12-23T21:48:51.417Z,11.95
2022-12-23T21:53:55.062Z,16.20
2022-12-23T21:59:02.388Z,14.05
2022-12-23T22:04:04.189Z,12.93
2022-12-23T22:09:07.361Z,11.90
2022-12-23T22:14:13.251Z,10.43
2022-12-23T22:19:14.982Z,17.25
2022-12-23T22:24:16.641Z,16.33
2022-12-23T22:29:18.061Z,17.50
2022-12-23T22:34:22.331Z,14.57
2022-12-23T22:39:23.785Z,13.27
2022-12-23T22:44:25.229Z,11.60
2022-12-23T22:49:28.659Z,14.57
2022-12-23T22:59:45.526Z,18.92
2022-12-23T23:04:46.975Z,17.90
2022-12-23T23:09:49.907Z,12.50
2022-12-23T23:14:51.427Z,10.77
2022-12-23T23:19:53.709Z,14.80
2022-12-23T23:24:55.370Z,16.48
2022-12-23T23:29:56.997Z,16.95
2022-12-23T23:35:10.309Z,14.20
2022-12-23T23:40:12.144Z,20.60
2022-12-23T23:45:16.837Z,19.73
2022-12-23T23:50:18.324Z,17.23
2022-12-23T23:55:20.918Z,19.75
